createdAt,value
2018-07-07T00:01:25.167Z,15.97
2018-07-07T00:03:53.460Z,15.57
2018-07-07T00:06:22.015Z,15.67
2018-07-07T00:08:50.267Z,16.90
2018-07-07T00:11:18.806Z,16.47
2018-07-07T00:13:47.250Z,15.90
2018-07-07T00:16:15.226Z,15.97
2018-07-07T00:18:43.527Z,15.97
2018-07-07T00:21:11.965Z,15.57
2018-07-07T00:23:40.354Z,14.93
2018-07-07T00:26:08.968Z,15.40
2018-07-07T00:28:37.203Z,15.13
2018-07-07T00:31:05.781Z,14.83
2018-07-07T00:33:34.207Z,15.27
2018-07-07T00:36:02.754Z,15.47
2018-07-07T00:38:31.030Z,15.60
2018-07-07T00:40:59.332Z,15.23
2018-07-07T00:43:27.674Z,16.17
2018-07-07T00:45:55.958Z,16.07
2018-07-07T00:48:24.259Z,15.93
2018-07-07T00:50:52.488Z,15.80
2018-07-07T00:53:20.886Z,15.17
2018-07-07T00:55:49.281Z,14.73
2018-07-07T00:58:17.642Z,14.50
2018-07-07T01:00:48.733Z,14.90
2018-07-07T01:03:16.958Z,14.37
2018-07-07T01:05:45.945Z,14.97
2018-07-07T01:08:14.778Z,15.00
2018-07-07T01:10:43.361Z,14.60
2018-07-07T01:13:11.697Z,15.13
2018-07-07T01:15:40.374Z,13.93
2018-07-07T01:18:08.754Z,15.03
2018-07-07T01:20:37.275Z,14.67
2018-07-07T01:23:05.610Z,14.20
2018-07-07T01:25:33.693Z,15.40
2018-07-07T01:28:02.099Z,15.03
2018-07-07T01:30:30.446Z,15.50
2018-07-07T01:32:58.364Z,16.27
2018-07-07T01:35:26.617Z,16.17
2018-07-07T01:37:54.967Z,16.50
2018-07-07T01:40:22.896Z,15.37
2018-07-07T01:42:51.206Z,15.20
2018-07-07T01:45:19.612Z,15.87
2018-07-07T01:47:47.958Z,16.37
2018-07-07T01:50:16.347Z,16.43
2018-07-07T01:52:44.618Z,16.23
2018-07-07T01:55:13.090Z,15.07
2018-07-07T01:57:41.296Z,16.63
2018-07-07T02:00:09.837Z,16.30
2018-07-07T02:02:38.017Z,16.00
2018-07-07T02:05:06.533Z,16.30
2018-07-07T02:07:34.877Z,16.23
2018-07-07T02:10:03.151Z,15.10
2018-07-07T02:12:31.465Z,16.23
2018-07-07T02:14:59.810Z,15.50
2018-07-07T02:17:27.977Z,17.30
2018-07-07T02:19:56.295Z,15.53
2018-07-07T02:22:24.886Z,14.77
2018-07-07T02:24:53.525Z,15.77
2018-07-07T02:27:23.421Z,15.53
2018-07-07T02:29:52.122Z,15.23
2018-07-07T02:32:20.398Z,15.90
2018-07-07T02:34:48.921Z,15.60
2018-07-07T02:37:17.262Z,16.43
2018-07-07T02:39:45.666Z,16.03
2018-07-07T02:42:14.262Z,15.70
2018-07-07T02:44:42.479Z,16.37
2018-07-07T02:47:10.978Z,15.57
2018-07-07T02:49:39.295Z,17.20
2018-07-07T02:52:07.739Z,16.67
2018-07-07T02:54:36.119Z,17.07
2018-07-07T02:57:04.515Z,16.13
2018-07-07T02:59:32.744Z,16.83
2018-07-07T03:02:01.139Z,16.43
2018-07-07T03:04:29.468Z,16.90
2018-07-07T03:06:57.899Z,16.63
2018-07-07T03:09:26.174Z,16.37
2018-07-07T03:11:54.142Z,16.80
2018-07-07T03:14:22.314Z,17.03
2018-07-07T03:16:50.795Z,17.27
2018-07-07T03:19:18.982Z,17.90
2018-07-07T03:21:47.441Z,16.00
2018-07-07T03:24:15.721Z,15.83
2018-07-07T03:26:43.849Z,16.53
2018-07-07T03:29:12.169Z,16.47
2018-07-07T03:31:40.438Z,17.00
2018-07-07T03:34:08.755Z,16.47
2018-07-07T03:36:36.997Z,16.70
2018-07-07T03:39:06.550Z,16.10
2018-07-07T03:41:34.941Z,17.13
2018-07-07T03:44:03.249Z,16.33
2018-07-07T03:46:31.534Z,17.00
2018-07-07T03:48:59.737Z,16.50
2018-07-07T03:51:28.073Z,15.83
2018-07-07T03:53:56.345Z,16.30
2018-07-07T03:56:24.671Z,15.93
2018-07-07T03:58:53.078Z,16.10
2018-07-07T04:01:21.509Z,16.73
2018-07-07T04:03:49.903Z,16.13
2018-07-07T04:06:18.452Z,16.17
2018-07-07T04:08:46.925Z,16.77
2018-07-07T04:11:15.313Z,17.00
2018-07-07T04:13:43.678Z,16.87
2018-07-07T04:16:12.070Z,18.93
2018-07-07T04:18:40.324Z,17.87
2018-07-07T04:21:08.726Z,18.30
2018-07-07T04:23:36.986Z,18.67
2018-07-07T04:26:05.364Z,17.70
2018-07-07T04:28:33.989Z,17.43
2018-07-07T04:31:02.433Z,17.70
2018-07-07T04:33:30.723Z,17.63
2018-07-07T04:35:59.020Z,16.57
2018-07-07T04:38:27.353Z,15.87
2018-07-07T04:40:55.633Z,16.13
2018-07-07T04:43:24.053Z,16.13
2018-07-07T04:45:52.421Z,16.30
2018-07-07T04:48:20.878Z,16.50
2018-07-07T04:50:48.837Z,16.47
2018-07-07T04:53:17.119Z,16.63
2018-07-07T04:55:45.498Z,16.47
2018-07-07T04:58:13.814Z,17.03
2018-07-07T05:00:42.350Z,16.43
2018-07-07T05:03:10.840Z,15.77
2018-07-07T05:05:39.139Z,17.53
2018-07-07T05:08:07.595Z,16.73
2018-07-07T05:10:35.857Z,16.77
2018-07-07T05:13:04.285Z,16.70
2018-07-07T05:15:32.851Z,16.37
2018-07-07T05:18:01.207Z,16.90
2018-07-07T05:20:29.489Z,17.00
2018-07-07T05:22:57.885Z,17.03
2018-07-07T05:25:26.432Z,17.30
2018-07-07T05:27:54.712Z,16.90
2018-07-07T05:30:23.121Z,16.83
2018-07-07T05:32:51.473Z,15.80
2018-07-07T05:35:19.746Z,16.43
2018-07-07T05:37:47.954Z,16.10
2018-07-07T05:40:15.854Z,16.03
2018-07-07T05:42:43.986Z,16.13
2018-07-07T05:45:11.958Z,15.80
2018-07-07T05:47:39.869Z,16.00
2018-07-07T05:50:07.922Z,15.70
2018-07-07T05:52:35.836Z,15.87
2018-07-07T05:55:03.867Z,15.23
2018-07-07T05:57:32.359Z,15.63
2018-07-07T06:00:00.595Z,14.90
2018-07-07T06:02:29.129Z,14.47
2018-07-07T06:04:57.510Z,15.43
2018-07-07T06:07:25.730Z,14.90
2018-07-07T06:09:54.058Z,14.90
2018-07-07T06:12:22.446Z,15.57
2018-07-07T06:14:50.338Z,14.83
2018-07-07T06:17:18.253Z,14.57
2018-07-07T06:19:46.563Z,14.83
2018-07-07T06:22:15.034Z,14.17
2018-07-07T06:24:43.336Z,14.27
2018-07-07T06:27:11.677Z,14.53
2018-07-07T06:29:40.058Z,13.93
2018-07-07T06:32:08.579Z,14.40
2018-07-07T06:34:36.926Z,14.70
2018-07-07T06:37:05.399Z,14.10
2018-07-07T06:39:33.614Z,14.73
2018-07-07T06:42:02.050Z,14.53
2018-07-07T06:44:30.222Z,14.90
2018-07-07T06:46:58.610Z,15.00
2018-07-07T06:49:26.882Z,13.60
2018-07-07T06:51:55.158Z,16.07
2018-07-07T06:54:23.625Z,15.47
2018-07-07T06:56:51.923Z,15.30
2018-07-07T06:59:20.198Z,15.13
2018-07-07T07:01:48.527Z,14.30
2018-07-07T07:04:16.833Z,14.47
2018-07-07T07:06:45.125Z,13.80
2018-07-07T07:09:13.394Z,14.73
2018-07-07T07:11:41.774Z,14.60
2018-07-07T07:14:10.361Z,13.60
2018-07-07T07:16:38.275Z,13.73
2018-07-07T07:19:07.090Z,14.63
2018-07-07T07:21:35.019Z,12.90
2018-07-07T07:24:02.978Z,11.83
2018-07-07T07:26:30.920Z,14.27
2018-07-07T07:28:58.850Z,13.33
2018-07-07T07:31:27.054Z,15.07
2018-07-07T07:33:55.525Z,12.40
2018-07-07T07:36:44.049Z,13.00
2018-07-07T07:39:12.111Z,12.37
2018-07-07T07:41:40.048Z,13.70
2018-07-07T07:44:08.147Z,13.73
2018-07-07T07:46:36.089Z,14.03
2018-07-07T07:49:04.049Z,14.03
2018-07-07T07:51:31.943Z,13.67
2018-07-07T07:53:59.894Z,14.27
2018-07-07T07:56:28.321Z,13.27
2018-07-07T07:58:57.234Z,15.07
2018-07-07T08:01:25.340Z,14.10
2018-07-07T08:03:53.456Z,13.63
2018-07-07T08:06:21.903Z,13.80
2018-07-07T08:08:49.886Z,13.30
2018-07-07T08:11:17.762Z,13.90
2018-07-07T08:13:45.687Z,13.67
2018-07-07T08:16:13.633Z,13.07
2018-07-07T08:18:41.746Z,13.60
2018-07-07T08:21:09.722Z,13.07
2018-07-07T08:23:37.630Z,13.53
2018-07-07T08:26:05.595Z,13.33
2018-07-07T08:28:33.551Z,13.03
2018-07-07T08:31:01.462Z,13.50
2018-07-07T08:33:29.354Z,13.80
2018-07-07T08:35:57.238Z,12.17
2018-07-07T08:38:25.134Z,11.83
2018-07-07T08:40:52.997Z,10.93
2018-07-07T08:43:21.222Z,10.67
2018-07-07T08:45:49.123Z,9.70
2018-07-07T08:48:17.065Z,9.93
2018-07-07T08:50:45.439Z,10.60
2018-07-07T08:53:14.010Z,11.03
2018-07-07T08:55:41.925Z,10.27
2018-07-07T08:58:09.814Z,11.30
2018-07-07T09:00:37.742Z,10.27
2018-07-07T09:03:06.697Z,11.40
2018-07-07T09:05:34.634Z,10.67
2018-07-07T09:08:02.970Z,10.13
2018-07-07T09:10:31.122Z,9.17
2018-07-07T09:12:59.049Z,9.17
2018-07-07T09:15:27.372Z,8.40
2018-07-07T09:17:55.318Z,9.50
2018-07-07T09:20:23.218Z,9.27
2018-07-07T09:22:51.130Z,9.40
2018-07-07T09:25:19.038Z,9.53
2018-07-07T09:27:46.950Z,8.50
2018-07-07T09:30:14.919Z,9.07
2018-07-07T09:32:42.817Z,8.20
2018-07-07T09:35:10.734Z,8.97
2018-07-07T09:37:38.637Z,8.50
2018-07-07T09:40:06.581Z,8.70
2018-07-07T09:42:34.468Z,8.23
2018-07-07T09:45:02.403Z,8.20
2018-07-07T09:47:30.308Z,7.77
2018-07-07T09:49:58.226Z,6.93
2018-07-07T09:52:26.139Z,7.10
2018-07-07T09:54:54.940Z,7.20
2018-07-07T09:57:22.821Z,6.80
2018-07-07T09:59:50.701Z,7.37
2018-07-07T10:02:18.570Z,7.30
2018-07-07T10:04:46.466Z,6.63
2018-07-07T10:07:14.386Z,7.10
2018-07-07T10:09:42.314Z,6.90
2018-07-07T10:12:10.213Z,6.20
2018-07-07T10:14:38.143Z,6.67
2018-07-07T10:17:06.038Z,7.60
2018-07-07T10:19:33.964Z,7.57
2018-07-07T10:22:01.882Z,6.10
2018-07-07T10:24:29.861Z,7.90
2018-07-07T10:26:57.754Z,7.93
2018-07-07T10:29:25.663Z,7.20
2018-07-07T10:31:53.564Z,7.57
2018-07-07T10:34:21.467Z,8.37
2018-07-07T10:36:49.375Z,8.30
2018-07-07T10:39:17.253Z,8.57
2018-07-07T10:41:45.146Z,8.67
2018-07-07T10:44:13.041Z,8.80
2018-07-07T10:46:40.961Z,8.70
2018-07-07T10:49:08.837Z,8.17
2018-07-07T10:51:36.741Z,10.00
2018-07-07T10:54:04.718Z,9.10
2018-07-07T10:56:32.615Z,8.60
2018-07-07T10:59:00.493Z,8.77
2018-07-07T11:01:28.468Z,10.23
2018-07-07T11:03:56.378Z,9.33
2018-07-07T11:06:24.412Z,8.93
2018-07-07T11:08:52.317Z,9.33
2018-07-07T11:11:20.195Z,13.00
2018-07-07T11:13:48.098Z,12.77
2018-07-07T11:16:15.974Z,9.87
2018-07-07T11:18:44.128Z,8.70
2018-07-07T11:21:12.113Z,11.47
2018-07-07T11:23:39.996Z,10.00
2018-07-07T11:26:07.996Z,9.70
2018-07-07T11:28:35.873Z,10.23
2018-07-07T11:31:03.769Z,9.80
2018-07-07T11:33:31.653Z,10.40
2018-07-07T11:35:59.535Z,10.80
2018-07-07T11:38:27.551Z,16.93
2018-07-07T11:40:55.519Z,11.80
2018-07-07T11:43:23.525Z,12.93
2018-07-07T11:45:51.540Z,12.00
2018-07-07T11:48:19.534Z,10.57
2018-07-07T11:50:47.448Z,11.00
2018-07-07T11:53:15.352Z,10.33
2018-07-07T11:55:43.245Z,10.57
2018-07-07T11:58:11.789Z,10.53
2018-07-07T12:00:40.075Z,11.93
2018-07-07T12:03:08.683Z,12.50
2018-07-07T12:05:37.123Z,14.00
2018-07-07T12:08:13.874Z,15.93
2018-07-07T12:10:34.091Z,15.37
2018-07-07T12:13:02.553Z,16.67
2018-07-07T12:15:30.733Z,15.63
2018-07-07T12:17:59.236Z,15.90
2018-07-07T12:20:27.394Z,16.50
2018-07-07T12:22:55.775Z,16.67
2018-07-07T12:25:24.036Z,18.53
2018-07-07T12:27:52.537Z,18.33
2018-07-07T12:30:20.597Z,17.90
2018-07-07T12:32:49.070Z,17.53
2018-07-07T12:35:17.353Z,15.83
2018-07-07T12:37:45.525Z,16.90
2018-07-07T12:40:13.905Z,17.37
2018-07-07T12:42:42.173Z,19.43
2018-07-07T12:45:10.558Z,18.83
2018-07-07T12:47:38.827Z,20.50
2018-07-07T12:50:07.312Z,18.97
2018-07-07T12:52:35.789Z,19.07
2018-07-07T12:55:04.319Z,19.23
2018-07-07T12:57:32.847Z,18.93
2018-07-07T13:00:01.231Z,18.20
2018-07-07T13:02:29.615Z,18.07
2018-07-07T13:04:58.084Z,17.07
2018-07-07T13:07:26.469Z,18.53
2018-07-07T13:09:54.958Z,19.53
2018-07-07T13:12:23.330Z,19.83
2018-07-07T13:14:51.706Z,21.00
2018-07-07T13:17:20.086Z,19.67
2018-07-07T13:19:48.505Z,23.43
2018-07-07T13:22:16.833Z,20.80
2018-07-07T13:24:45.118Z,22.07
2018-07-07T13:27:13.630Z,21.53
2018-07-07T13:29:41.861Z,20.57
2018-07-07T13:32:10.344Z,21.90
2018-07-07T13:34:39.281Z,20.57
2018-07-07T13:37:07.612Z,20.70
2018-07-07T13:39:38.044Z,20.73
2018-07-07T13:42:07.151Z,20.80
2018-07-07T13:44:35.527Z,20.60
2018-07-07T13:47:03.998Z,18.97
2018-07-07T13:49:32.269Z,19.23
2018-07-07T13:52:00.649Z,19.83
2018-07-07T13:54:28.585Z,20.03
2018-07-07T13:56:56.998Z,19.80
2018-07-07T13:59:25.165Z,20.27
2018-07-07T14:01:53.996Z,19.83
2018-07-07T14:04:22.657Z,21.30
2018-07-07T14:06:51.010Z,19.30
2018-07-07T14:09:19.299Z,19.80
2018-07-07T14:11:47.665Z,18.30
2018-07-07T14:14:16.158Z,17.20
2018-07-07T14:16:44.475Z,15.30
2018-07-07T14:19:13.117Z,11.47
2018-07-07T14:21:41.384Z,10.37
2018-07-07T14:24:09.297Z,9.80
2018-07-07T14:26:37.738Z,8.80
2018-07-07T14:29:06.122Z,8.13
2018-07-07T14:31:34.489Z,8.23
2018-07-07T14:34:02.361Z,8.07
2018-07-07T14:36:30.634Z,7.60
2018-07-07T14:38:58.813Z,8.17
2018-07-07T14:41:27.169Z,8.63
2018-07-07T14:44:01.863Z,7.70
2018-07-07T14:46:30.309Z,7.43
2018-07-07T14:48:58.772Z,7.07
2018-07-07T14:51:27.146Z,7.53
2018-07-07T14:53:55.257Z,7.23
2018-07-07T14:56:24.218Z,7.13
2018-07-07T14:58:52.492Z,7.30
2018-07-07T15:01:20.482Z,8.50
2018-07-07T15:03:48.730Z,8.00
2018-07-07T15:06:17.111Z,8.30
2018-07-07T15:08:45.104Z,7.50
2018-07-07T15:11:13.787Z,7.43
2018-07-07T15:13:42.140Z,7.70
2018-07-07T15:16:10.525Z,7.30
2018-07-07T15:18:38.893Z,7.37
2018-07-07T15:21:07.274Z,7.47
2018-07-07T15:23:35.549Z,7.40
2018-07-07T15:26:03.925Z,7.17
2018-07-07T15:28:32.301Z,7.30
2018-07-07T15:31:00.569Z,7.13
2018-07-07T15:33:28.520Z,7.17
2018-07-07T15:35:56.398Z,6.90
2018-07-07T15:38:24.270Z,7.23
2018-07-07T15:40:52.177Z,7.30
2018-07-07T15:43:20.095Z,6.83
2018-07-07T15:45:47.982Z,6.93
2018-07-07T15:48:15.922Z,7.30
2018-07-07T15:50:43.850Z,6.93
2018-07-07T15:53:11.800Z,6.77
2018-07-07T15:55:39.746Z,6.83
2018-07-07T15:58:07.766Z,6.60
2018-07-07T16:00:35.695Z,7.60
2018-07-07T16:03:03.666Z,7.60
2018-07-07T16:05:31.585Z,7.23
2018-07-07T16:07:59.460Z,7.33
2018-07-07T16:10:27.457Z,6.20
2018-07-07T16:12:55.362Z,6.60
2018-07-07T16:15:23.357Z,6.83
2018-07-07T16:17:51.290Z,6.30
2018-07-07T16:20:19.276Z,6.73
2018-07-07T16:22:47.185Z,7.10
2018-07-07T16:25:15.079Z,8.50
2018-07-07T16:27:43.002Z,7.90
2018-07-07T16:30:10.963Z,6.80
2018-07-07T16:32:38.861Z,7.30
2018-07-07T16:35:06.783Z,7.17
2018-07-07T16:37:34.810Z,7.37
2018-07-07T16:40:02.895Z,7.17
2018-07-07T16:42:30.907Z,7.63
2018-07-07T16:44:59.558Z,7.90
2018-07-07T16:47:27.604Z,8.10
2018-07-07T16:49:55.765Z,7.97
2018-07-07T16:52:23.942Z,8.40
2018-07-07T16:54:52.318Z,8.20
2018-07-07T16:57:20.410Z,8.20
2018-07-07T16:59:48.498Z,7.80
2018-07-07T17:02:18.726Z,7.90
2018-07-07T17:04:46.806Z,7.70
2018-07-07T17:07:14.830Z,7.50
2018-07-07T17:09:43.505Z,7.37
2018-07-07T17:12:11.633Z,7.20
2018-07-07T17:14:39.711Z,7.17
2018-07-07T17:17:07.758Z,6.80
2018-07-07T17:19:35.866Z,6.33
2018-07-07T17:22:03.857Z,7.07
2018-07-07T17:24:32.191Z,6.90
2018-07-07T17:27:00.335Z,6.50
2018-07-07T17:29:28.374Z,6.70
2018-07-07T17:31:56.898Z,6.20
2018-07-07T17:34:25.758Z,6.30
2018-07-07T17:36:54.363Z,6.17
2018-07-07T17:39:22.290Z,7.03
2018-07-07T17:41:50.306Z,6.77
2018-07-07T17:44:18.694Z,7.37
2018-07-07T17:46:46.681Z,7.53
2018-07-07T17:49:15.629Z,7.67
2018-07-07T17:51:43.677Z,7.50
2018-07-07T17:54:11.645Z,7.40
2018-07-07T17:56:40.298Z,7.60
2018-07-07T17:59:08.366Z,7.80
2018-07-07T18:01:36.935Z,8.10
2018-07-07T18:04:05.210Z,7.43
2018-07-07T18:06:33.121Z,9.23
2018-07-07T18:09:00.998Z,8.60
2018-07-07T18:11:28.969Z,8.27
2018-07-07T18:13:56.878Z,8.53
2018-07-07T18:16:24.839Z,8.30
2018-07-07T18:18:52.770Z,9.43
2018-07-07T18:21:20.679Z,9.43
2018-07-07T18:23:48.601Z,8.77
2018-07-07T18:26:16.548Z,8.87
2018-07-07T18:28:44.454Z,9.03
2018-07-07T18:31:12.651Z,9.50
2018-07-07T18:33:40.578Z,9.73
2018-07-07T18:36:08.617Z,10.17
2018-07-07T18:38:36.552Z,9.63
2018-07-07T18:41:04.499Z,9.80
2018-07-07T18:43:32.450Z,9.40
2018-07-07T18:46:00.416Z,9.47
2018-07-07T18:48:28.379Z,9.00
2018-07-07T18:50:56.253Z,9.57
2018-07-07T18:53:24.215Z,10.13
2018-07-07T18:55:52.130Z,9.13
2018-07-07T18:58:20.025Z,9.70
2018-07-07T19:00:47.954Z,9.80
2018-07-07T19:03:15.883Z,10.60
2018-07-07T19:05:43.807Z,9.27
2018-07-07T19:08:11.677Z,9.73
2018-07-07T19:10:39.585Z,9.20
2018-07-07T19:13:07.525Z,9.10
2018-07-07T19:15:35.521Z,9.50
2018-07-07T19:18:03.478Z,8.47
2018-07-07T19:20:37.036Z,9.47
2018-07-07T19:23:10.524Z,8.90
2018-07-07T19:25:44.125Z,9.30
2018-07-07T19:28:12.104Z,8.93
2018-07-07T19:30:40.027Z,8.80
2018-07-07T19:33:13.551Z,9.43
2018-07-07T19:35:46.899Z,9.10
2018-07-07T19:38:14.841Z,8.63
2018-07-07T19:40:42.888Z,8.90
2018-07-07T19:43:10.861Z,8.47
2018-07-07T19:45:38.790Z,8.53
2018-07-07T19:48:07.048Z,8.50
2018-07-07T19:50:35.023Z,8.27
2018-07-07T19:53:03.055Z,7.97
2018-07-07T19:55:30.971Z,7.90
2018-07-07T19:57:58.869Z,7.83
2018-07-07T20:00:26.805Z,8.10
2018-07-07T20:02:54.933Z,8.00
2018-07-07T20:05:22.841Z,7.93
2018-07-07T20:07:50.783Z,12.00
2018-07-07T20:10:18.762Z,8.60
2018-07-07T20:12:46.703Z,8.43
2018-07-07T20:15:14.722Z,8.77
2018-07-07T20:18:05.365Z,9.33
2018-07-07T20:20:38.722Z,9.23
2018-07-07T20:23:10.098Z,8.77
2018-07-07T20:25:38.059Z,8.37
2018-07-07T20:28:11.548Z,8.90
2018-07-07T20:30:39.535Z,8.57
2018-07-07T20:33:07.921Z,9.00
2018-07-07T20:35:36.046Z,8.93
2018-07-07T20:38:04.060Z,8.77
2018-07-07T20:40:32.382Z,8.90
2018-07-07T20:43:00.658Z,8.93
2018-07-07T20:45:29.881Z,9.40
2018-07-07T20:47:58.431Z,9.00
2018-07-07T20:50:26.917Z,9.10
2018-07-07T20:52:55.285Z,8.00
2018-07-07T20:55:23.561Z,8.83
2018-07-07T20:57:51.938Z,9.03
2018-07-07T21:00:20.318Z,8.50
2018-07-07T21:02:48.709Z,8.53
2018-07-07T21:05:17.081Z,8.87
2018-07-07T21:07:45.565Z,9.27
2018-07-07T21:10:14.043Z,8.60
2018-07-07T21:12:42.521Z,8.20
2018-07-07T21:15:10.897Z,8.13
2018-07-07T21:17:39.279Z,8.63
2018-07-07T21:20:07.754Z,8.00
2018-07-07T21:22:36.138Z,8.17
2018-07-07T21:25:04.476Z,8.17
2018-07-07T21:27:32.985Z,7.73
2018-07-07T21:30:01.629Z,7.83
2018-07-07T21:32:30.149Z,8.00
2018-07-07T21:34:58.546Z,8.63
2018-07-07T21:37:26.805Z,8.20
2018-07-07T21:39:55.190Z,9.33
2018-07-07T21:42:23.766Z,7.33
2018-07-07T21:44:52.560Z,7.70
2018-07-07T21:47:20.938Z,7.40
2018-07-07T21:49:49.522Z,6.87
2018-07-07T21:52:18.094Z,6.93
2018-07-07T21:54:46.429Z,7.03
2018-07-07T21:57:20.306Z,7.47
2018-07-07T21:59:48.869Z,7.17
2018-07-07T22:02:22.399Z,6.80
2018-07-07T22:04:56.087Z,7.70
2018-07-07T22:07:30.005Z,7.17
2018-07-07T22:09:58.254Z,7.03
2018-07-07T22:12:28.677Z,7.07
2018-07-07T22:14:57.161Z,7.03
2018-07-07T22:17:25.427Z,6.37
2018-07-07T22:20:00.130Z,6.93
2018-07-07T22:22:28.525Z,7.33
2018-07-07T22:24:56.819Z,7.43
2018-07-07T22:27:24.729Z,8.47
2018-07-07T22:29:52.655Z,8.13
2018-07-07T22:32:22.701Z,9.30
2018-07-07T22:34:50.893Z,9.70
2018-07-07T22:37:18.926Z,9.27
2018-07-07T22:39:47.148Z,9.70
2018-07-07T22:42:16.429Z,9.63
2018-07-07T22:44:45.807Z,10.90
2018-07-07T22:47:14.159Z,10.17
2018-07-07T22:49:42.638Z,10.73
2018-07-07T22:52:11.178Z,10.70
2018-07-07T22:54:39.702Z,10.53
2018-07-07T22:57:08.078Z,11.33
2018-07-07T22:59:36.462Z,11.17
2018-07-07T23:02:04.825Z,11.87
2018-07-07T23:04:33.204Z,12.27
2018-07-07T23:07:01.589Z,11.73
2018-07-07T23:09:30.061Z,12.57
2018-07-07T23:11:58.449Z,11.93
2018-07-07T23:14:27.032Z,12.47
2018-07-07T23:16:59.990Z,13.17
2018-07-07T23:19:28.405Z,14.87
2018-07-07T23:21:56.845Z,15.37
2018-07-07T23:24:25.475Z,15.70
2018-07-07T23:26:54.142Z,14.63
2018-07-07T23:29:22.522Z,15.13
2018-07-07T23:31:50.902Z,15.77
2018-07-07T23:34:19.166Z,16.20
2018-07-07T23:36:47.450Z,16.30
2018-07-07T23:39:15.719Z,15.07
2018-07-07T23:41:44.129Z,14.27
2018-07-07T23:44:12.539Z,14.60
2018-07-07T23:46:41.057Z,14.23
2018-07-07T23:49:09.338Z,13.70
2018-07-07T23:51:37.822Z,13.50
2018-07-07T23:54:06.298Z,13.07
2018-07-07T23:56:34.778Z,13.27
2018-07-07T23:59:03.054Z,12.43
